Time;durP1;ratioP1;P1;durP2;ratioP2;P2;SDS_P1;SDS_P2;PMS_P1;PMS_P2;Temp;Humidity;BMP_temperature;BMP_pressure;BME280_temperature;BME280_humidity;BME280_pressure;Samples;Min_cycle;Max_cycle;Signal;HPM_P1;HPM_P2
2023/07/03 00:01:14;;;;;;;17.83;5.10;;;15.70;1.00;;;;;;5068635;28;20227;-65
2023/07/03 00:03:43;;;;;;;27.43;5.77;;;15.60;1.00;;;;;;5088838;28;20226;-65
2023/07/03 00:06:12;;;;;;;24.87;5.13;;;15.70;1.00;;;;;;5095378;28;20205;-64
2023/07/03 00:08:40;;;;;;;30.07;5.43;;;15.60;1.00;;;;;;5090283;28;20223;-64
2023/07/03 00:11:08;;;;;;;28.27;5.67;;;15.60;1.00;;;;;;5091057;28;20697;-65
2023/07/03 00:13:36;;;;;;;25.57;5.57;;;15.60;1.00;;;;;;5091719;28;20215;-64
2023/07/03 00:16:05;;;;;;;24.50;6.10;;;15.60;1.00;;;;;;5083132;28;20280;-65
2023/07/03 00:18:34;;;;;;;27.73;5.83;;;15.60;1.00;;;;;;5089543;28;20221;-64
2023/07/03 00:21:04;;;;;;;25.93;5.13;;;15.60;1.00;;;;;;5083420;28;20220;-65
2023/07/03 00:23:32;;;;;;;28.23;5.77;;;15.60;1.00;;;;;;5089336;28;20698;-65
2023/07/03 00:26:01;;;;;;;29.10;5.47;;;15.60;1.00;;;;;;5091641;28;20242;-64
2023/07/03 00:28:29;;;;;;;30.60;6.03;;;15.50;1.00;;;;;;5091575;28;20221;-65
2023/07/03 00:30:57;;;;;;;24.27;5.57;;;15.50;1.00;;;;;;5088119;28;20216;-65
2023/07/03 00:33:26;;;;;;;23.80;4.70;;;15.50;1.00;;;;;;5086892;28;20539;-65
2023/07/03 00:35:54;;;;;;;27.93;5.40;;;15.40;1.00;;;;;;5087904;28;20753;-65
2023/07/03 00:38:24;;;;;;;30.90;5.93;;;15.40;1.00;;;;;;5089526;28;20224;-64
2023/07/03 00:40:55;;;;;;;25.07;5.50;;;15.40;1.00;;;;;;5091054;28;20632;-64
2023/07/03 00:43:24;;;;;;;22.33;5.33;;;15.30;1.00;;;;;;5073186;28;20225;-64
2023/07/03 00:45:52;;;;;;;20.73;5.10;;;15.30;1.00;;;;;;5087854;28;20277;-65
2023/07/03 00:48:21;;;;;;;29.40;5.93;;;15.30;1.00;;;;;;5082078;28;20195;-64
2023/07/03 00:50:49;;;;;;;25.50;6.27;;;15.30;1.00;;;;;;5090681;28;20199;-64
2023/07/03 00:53:17;;;;;;;23.47;6.00;;;15.30;1.00;;;;;;5084863;28;20235;-65
2023/07/03 00:55:47;;;;;;;23.20;5.70;;;15.30;1.00;;;;;;5089380;28;20208;-64
2023/07/03 00:58:16;;;;;;;24.77;5.13;;;15.30;1.00;;;;;;5085772;28;20271;-65
2023/07/03 01:00:51;;;;;;;20.93;5.27;;;15.30;1.00;;;;;;5089025;28;20270;-65
2023/07/03 01:03:35;;;;;;;31.17;6.00;;;15.30;1.00;;;;;;5088450;28;20199;-64
2023/07/03 01:06:06;;;;;;;24.43;5.50;;;15.20;1.00;;;;;;5085605;28;20191;-65
2023/07/03 01:08:35;;;;;;;22.17;5.53;;;15.20;3.20;;;;;;5063838;28;20212;-65
2023/07/03 01:11:06;;;;;;;23.63;5.87;;;15.20;10.30;;;;;;5090128;28;20596;-65
2023/07/03 01:13:35;;;;;;;28.97;5.97;;;15.20;8.20;;;;;;5092945;28;20211;-65
2023/07/03 01:16:06;;;;;;;24.37;5.73;;;15.20;13.70;;;;;;5094539;28;20223;-65
2023/07/03 01:18:35;;;;;;;25.80;5.37;;;15.20;12.90;;;;;;5074760;28;20188;-65
2023/07/03 01:21:09;;;;;;;29.67;5.70;;;15.20;17.30;;;;;;5094789;28;20188;-65
2023/07/03 01:23:42;;;;;;;21.87;6.03;;;15.20;20.40;;;;;;5091662;28;20693;-65
2023/07/03 01:26:14;;;;;;;26.87;5.60;;;15.20;20.00;;;;;;5067182;28;20298;-65
2023/07/03 01:28:45;;;;;;;32.27;6.00;;;15.20;20.50;;;;;;5087720;28;20653;-66
2023/07/03 01:31:15;;;;;;;32.23;7.07;;;15.20;21.70;;;;;;5090931;28;20223;-64
2023/07/03 01:33:45;;;;;;;30.13;6.10;;;15.10;25.70;;;;;;5071347;28;20792;-65
2023/07/03 01:36:14;;;;;;;25.57;6.67;;;15.20;25.00;;;;;;5091095;28;20554;-64
2023/07/03 01:38:44;;;;;;;30.33;6.70;;;15.20;25.70;;;;;;5092905;28;20203;-64
2023/07/03 01:41:16;;;;;;;28.17;7.07;;;15.10;32.60;;;;;;5085697;28;20224;-65
2023/07/03 01:43:46;;;;;;;28.80;6.70;;;15.10;40.80;;;;;;5089200;28;20265;-64
2023/07/03 01:46:15;;;;;;;21.80;6.07;;;15.10;41.80;;;;;;5089942;28;20250;-65
2023/07/03 01:48:44;;;;;;;30.37;6.87;;;15.10;47.20;;;;;;5089421;28;20752;-64
2023/07/03 01:51:19;;;;;;;29.40;6.23;;;15.10;53.30;;;;;;5091159;28;20542;-67
2023/07/03 01:53:54;;;;;;;25.27;5.57;;;15.10;51.50;;;;;;5089748;28;20228;-65
2023/07/03 01:56:29;;;;;;;24.33;6.00;;;15.20;43.50;;;;;;5090485;28;20218;-65
2023/07/03 01:59:04;;;;;;;29.03;6.17;;;15.20;48.80;;;;;;5085829;28;20212;-65
2023/07/03 02:01:41;;;;;;;28.83;5.83;;;15.20;47.60;;;;;;5088363;28;20219;-65
2023/07/03 02:04:15;;;;;;;28.17;6.27;;;15.30;43.10;;;;;;5074125;28;20219;-65
2023/07/03 02:06:46;;;;;;;31.20;7.30;;;15.30;50.60;;;;;;5090087;28;20234;-64
2023/07/03 02:09:15;;;;;;;23.90;6.47;;;15.30;47.50;;;;;;5089525;28;20199;-64
2023/07/03 02:11:48;;;;;;;24.97;5.70;;;15.20;53.50;;;;;;5094128;28;20208;-64
2023/07/03 02:14:16;;;;;;;33.07;6.40;;;15.30;53.40;;;;;;5088147;28;20223;-65
2023/07/03 02:16:47;;;;;;;33.23;6.67;;;15.30;49.30;;;;;;5091579;28;20226;-64
2023/07/03 02:19:16;;;;;;;24.93;6.33;;;15.30;51.80;;;;;;5091625;28;20216;-64
2023/07/03 02:21:45;;;;;;;26.40;6.20;;;15.30;55.40;;;;;;5086858;28;20298;-65
2023/07/03 02:24:14;;;;;;;27.23;7.40;;;15.40;53.80;;;;;;5090633;28;20211;-63
2023/07/03 02:26:43;;;;;;;26.63;6.60;;;15.40;54.10;;;;;;5092480;28;20250;-65
2023/07/03 02:29:13;;;;;;;25.07;6.60;;;15.40;49.20;;;;;;5091666;28;20623;-65
2023/07/03 02:31:41;;;;;;;34.27;6.93;;;15.40;50.30;;;;;;5086770;28;20225;-64
2023/07/03 02:34:10;;;;;;;24.33;6.40;;;15.40;57.00;;;;;;5072197;28;20235;-64
2023/07/03 02:36:40;;;;;;;25.80;6.30;;;15.40;54.50;;;;;;5089930;28;20221;-65
2023/07/03 02:39:09;;;;;;;25.77;6.90;;;15.40;59.90;;;;;;5091672;28;20197;-65
2023/07/03 02:41:37;;;;;;;26.00;6.40;;;15.40;62.10;;;;;;5093203;28;20623;-65
2023/07/03 02:44:05;;;;;;;30.07;6.67;;;15.40;61.50;;;;;;5090749;28;20228;-65
2023/07/03 02:46:35;;;;;;;33.60;6.80;;;15.40;67.60;;;;;;5084918;28;20251;-64
2023/07/03 02:49:04;;;;;;;28.17;6.53;;;15.40;66.60;;;;;;5091429;28;20215;-65
2023/07/03 02:51:32;;;;;;;24.97;6.60;;;15.50;66.00;;;;;;5087820;28;20198;-63
2023/07/03 02:54:00;;;;;;;32.43;7.13;;;15.60;58.90;;;;;;5092024;28;20219;-65
2023/07/03 02:56:29;;;;;;;29.13;6.50;;;15.60;53.20;;;;;;5091825;28;20231;-64
2023/07/03 02:58:57;;;;;;;36.30;7.63;;;15.60;59.60;;;;;;5092873;28;20219;-64
2023/07/03 03:01:25;;;;;;;23.80;6.47;;;15.60;53.30;;;;;;5091380;28;20220;-64
2023/07/03 03:03:58;;;;;;;28.93;6.63;;;15.50;64.80;;;;;;5092853;28;20219;-64
2023/07/03 03:06:28;;;;;;;28.97;6.70;;;15.60;60.20;;;;;;5088006;28;20282;-65
2023/07/03 03:08:56;;;;;;;23.77;7.07;;;15.50;64.50;;;;;;5091176;28;20195;-64
2023/07/03 03:11:24;;;;;;;26.40;7.33;;;15.50;65.50;;;;;;5074755;28;20261;-64
2023/07/03 03:13:52;;;;;;;26.40;6.33;;;15.60;60.90;;;;;;5084774;28;20682;-64
2023/07/03 03:16:20;;;;;;;27.57;6.77;;;15.50;65.70;;;;;;5083718;28;20212;-65
2023/07/03 03:18:50;;;;;;;24.90;7.13;;;15.60;63.60;;;;;;5093022;28;20217;-63
2023/07/03 03:21:20;;;;;;;31.27;7.33;;;15.50;69.20;;;;;;5089809;28;20548;-65
2023/07/03 03:23:48;;;;;;;26.03;6.53;;;15.50;71.60;;;;;;5066815;28;20210;-65
2023/07/03 03:26:16;;;;;;;31.90;7.63;;;15.60;60.60;;;;;;5067186;28;20213;-66
2023/07/03 03:28:46;;;;;;;27.10;6.63;;;15.50;68.80;;;;;;5086370;28;20532;-64
2023/07/03 03:31:15;;;;;;;22.10;6.93;;;15.60;62.00;;;;;;5086463;28;20606;-65
2023/07/03 03:33:43;;;;;;;26.07;6.83;;;15.50;65.20;;;;;;5088505;28;20578;-64
2023/07/03 03:36:11;;;;;;;24.87;6.77;;;15.50;64.30;;;;;;5092112;28;20187;-65
2023/07/03 03:38:41;;;;;;;30.90;7.70;;;15.60;63.60;;;;;;5084953;28;20224;-64
2023/07/03 03:41:09;;;;;;;26.63;6.73;;;15.60;62.80;;;;;;5082988;28;20218;-65
2023/07/03 03:43:37;;;;;;;22.50;7.00;;;15.50;68.30;;;;;;5091389;28;20215;-64
2023/07/03 03:46:06;;;;;;;23.83;6.77;;;15.50;71.60;;;;;;5087839;28;20307;-65
2023/07/03 03:48:35;;;;;;;29.20;7.17;;;15.60;59.10;;;;;;5085708;28;20245;-64
2023/07/03 03:51:04;;;;;;;26.50;6.90;;;15.50;66.90;;;;;;5088913;28;20269;-64
2023/07/03 03:53:32;;;;;;;22.80;6.50;;;15.60;63.90;;;;;;5087257;28;20231;-64
2023/07/03 03:56:02;;;;;;;24.70;6.70;;;15.60;62.30;;;;;;5089958;28;20264;-64
2023/07/03 03:58:30;;;;;;;23.43;7.07;;;15.60;53.80;;;;;;5086336;28;20224;-64
2023/07/03 04:00:58;;;;;;;26.70;6.70;;;15.60;43.50;;;;;;5090555;28;20697;-64
2023/07/03 04:03:27;;;;;;;22.47;6.50;;;15.60;45.50;;;;;;5088166;28;20281;-64
2023/07/03 04:05:55;;;;;;;25.57;6.93;;;15.50;53.70;;;;;;5072846;28;20207;-65
2023/07/03 04:08:24;;;;;;;24.43;6.33;;;15.50;53.80;;;;;;5082394;28;20227;-65
2023/07/03 04:10:52;;;;;;;27.70;6.40;;;15.50;47.60;;;;;;5092188;28;20228;-65
2023/07/03 04:13:21;;;;;;;26.97;6.97;;;15.60;42.50;;;;;;5091331;28;20208;-64
2023/07/03 04:16:00;;;;;;;27.83;7.10;;;15.60;48.70;;;;;;5090192;28;20231;-64
2023/07/03 04:18:30;;;;;;;25.57;6.43;;;15.60;47.10;;;;;;5089612;28;20286;-65
2023/07/03 04:20:59;;;;;;;30.17;6.67;;;15.60;44.30;;;;;;5088529;28;20188;-65
2023/07/03 04:23:29;;;;;;;22.77;6.97;;;15.50;51.30;;;;;;5086819;28;20248;-65
2023/07/03 04:25:58;;;;;;;23.27;6.63;;;15.50;58.30;;;;;;5079911;28;20748;-66
2023/07/03 04:28:28;;;;;;;23.40;6.10;;;15.50;56.80;;;;;;5091558;28;20269;-64
2023/07/03 04:30:56;;;;;;;20.10;5.87;;;15.50;46.70;;;;;;5089683;28;20216;-64
2023/07/03 04:33:24;;;;;;;25.77;6.57;;;15.60;41.90;;;;;;5090838;28;20756;-64
2023/07/03 04:35:52;;;;;;;23.07;6.10;;;15.60;32.40;;;;;;5085265;28;20276;-64
2023/07/03 04:38:23;;;;;;;22.80;6.23;;;15.60;29.70;;;;;;5091272;28;20204;-64
2023/07/03 04:40:53;;;;;;;22.33;6.43;;;15.60;27.90;;;;;;5085362;28;20211;-65
2023/07/03 04:43:22;;;;;;;24.50;6.83;;;15.60;27.80;;;;;;5089159;28;20214;-65
2023/07/03 04:45:53;;;;;;;22.53;6.33;;;15.50;39.90;;;;;;5094560;28;20627;-65
2023/07/03 04:48:22;;;;;;;22.03;6.43;;;15.50;39.50;;;;;;5093677;28;20241;-63
2023/07/03 04:50:50;;;;;;;18.70;5.80;;;15.50;31.10;;;;;;5094429;28;20193;-65
2023/07/03 04:53:21;;;;;;;24.60;6.30;;;15.60;22.60;;;;;;5094613;28;20238;-64
2023/07/03 04:55:50;;;;;;;22.93;6.33;;;15.70;21.00;;;;;;5095016;28;20223;-65
2023/07/03 04:58:28;;;;;;;19.07;5.83;;;15.70;27.20;;;;;;5093547;28;20217;-64
2023/07/03 05:01:00;;;;;;;24.97;7.03;;;15.80;13.60;;;;;;5095485;28;20217;-65
2023/07/03 05:03:28;;;;;;;19.93;6.23;;;15.80;15.50;;;;;;5092855;28;20221;-64
2023/07/03 05:05:58;;;;;;;25.37;6.57;;;15.80;18.00;;;;;;5091854;28;20205;-64
2023/07/03 05:08:26;;;;;;;24.13;6.33;;;15.90;16.40;;;;;;5096543;28;20222;-65
2023/07/03 05:10:54;;;;;;;22.53;7.20;;;15.90;15.20;;;;;;5092812;28;20294;-65
2023/07/03 05:13:23;;;;;;;22.37;6.63;;;15.90;18.80;;;;;;5097135;28;20237;-65
2023/07/03 05:15:51;;;;;;;20.40;6.57;;;15.90;15.40;;;;;;5095228;27;20744;-65
2023/07/03 05:18:21;;;;;;;20.83;5.50;;;16.00;29.90;;;;;;5093979;28;20560;-64
2023/07/03 05:20:50;;;;;;;21.90;6.00;;;16.00;17.10;;;;;;5098764;28;20686;-64
2023/07/03 05:23:18;;;;;;;24.27;6.63;;;16.00;21.10;;;;;;5096111;28;20219;-64
2023/07/03 05:25:47;;;;;;;19.33;5.80;;;16.10;1.00;;;;;;5095533;28;20222;-64
2023/07/03 05:28:16;;;;;;;16.73;5.93;;;16.00;15.00;;;;;;5097440;28;20240;-64
2023/07/03 05:30:45;;;;;;;26.47;6.90;;;16.10;15.40;;;;;;5095309;28;20215;-64
2023/07/03 05:33:16;;;;;;;19.80;7.10;;;16.10;16.40;;;;;;5094436;28;20194;-64
2023/07/03 05:35:46;;;;;;;20.43;6.33;;;16.10;11.90;;;;;;5094163;28;20196;-64
2023/07/03 05:38:19;;;;;;;24.17;7.03;;;16.20;8.80;;;;;;5096349;28;20216;-65
2023/07/03 05:40:49;;;;;;;20.30;6.87;;;16.10;21.10;;;;;;5092366;28;20578;-64
2023/07/03 05:43:18;;;;;;;24.03;7.20;;;16.10;29.50;;;;;;5091663;28;20212;-64
2023/07/03 05:45:48;;;;;;;25.43;6.80;;;16.10;25.10;;;;;;5096870;27;20678;-65
2023/07/03 05:48:17;;;;;;;23.90;6.47;;;16.10;30.40;;;;;;5092664;28;20186;-64
2023/07/03 05:50:47;;;;;;;18.90;6.70;;;16.10;40.50;;;;;;5092487;28;20193;-65
2023/07/03 05:53:15;;;;;;;24.63;6.90;;;16.10;45.30;;;;;;5094436;28;20235;-64
2023/07/03 05:55:44;;;;;;;20.40;6.60;;;16.10;51.50;;;;;;5089055;28;20252;-65
2023/07/03 05:58:12;;;;;;;27.90;5.87;;;16.20;39.90;;;;;;5069413;28;20217;-65
2023/07/03 06:00:41;;;;;;;18.97;5.97;;;16.20;38.80;;;;;;5091654;28;20228;-64
2023/07/03 06:03:11;;;;;;;23.50;6.70;;;16.20;37.00;;;;;;5089109;28;20236;-64
2023/07/03 06:05:42;;;;;;;25.33;7.20;;;16.20;32.80;;;;;;5088300;28;20225;-64
2023/07/03 06:08:12;;;;;;;21.83;6.50;;;16.30;21.70;;;;;;5076436;28;20218;-64
2023/07/03 06:10:41;;;;;;;16.93;6.50;;;16.20;23.20;;;;;;5086838;28;20226;-64
2023/07/03 06:13:09;;;;;;;18.93;6.40;;;16.20;28.70;;;;;;5091341;28;20581;-64
2023/07/03 06:15:38;;;;;;;25.80;6.63;;;16.20;18.90;;;;;;5091422;28;20227;-64
2023/07/03 06:18:06;;;;;;;23.90;6.53;;;16.20;18.10;;;;;;5087591;28;20197;-64
2023/07/03 06:20:35;;;;;;;19.20;7.20;;;16.20;17.80;;;;;;5083580;28;20648;-65
2023/07/03 06:23:03;;;;;;;22.63;7.43;;;16.20;9.40;;;;;;5087174;28;20709;-64
2023/07/03 06:25:33;;;;;;;23.93;7.57;;;16.20;19.80;;;;;;5088955;28;20583;-64
2023/07/03 06:28:02;;;;;;;22.00;7.23;;;16.20;10.80;;;;;;5090071;28;20217;-64
2023/07/03 06:30:30;;;;;;;26.63;7.93;;;16.20;16.30;;;;;;5091695;28;20188;-65
2023/07/03 06:32:58;;;;;;;25.83;7.23;;;16.10;8.50;;;;;;5089279;28;20196;-64
2023/07/03 06:35:27;;;;;;;22.23;6.57;;;16.00;20.00;;;;;;5082930;28;20248;-64
2023/07/03 06:37:58;;;;;;;28.50;7.07;;;16.00;1.00;;;;;;5089502;28;20215;-65
2023/07/03 06:40:26;;;;;;;17.63;6.27;;;16.10;16.90;;;;;;5092526;28;20225;-65
2023/07/03 06:42:56;;;;;;;22.30;6.47;;;16.20;1.00;;;;;;5091440;28;20221;-65
2023/07/03 06:45:24;;;;;;;16.33;5.67;;;16.20;1.00;;;;;;5090531;28;20212;-64
2023/07/03 06:47:55;;;;;;;21.97;6.33;;;16.30;1.00;;;;;;5089937;28;20195;-64
2023/07/03 06:50:23;;;;;;;18.63;5.40;;;16.30;1.00;;;;;;5091029;28;20229;-65
2023/07/03 06:52:52;;;;;;;22.90;6.33;;;16.30;1.00;;;;;;5092221;28;20651;-64
2023/07/03 06:55:20;;;;;;;18.23;5.60;;;16.30;1.00;;;;;;5049730;28;20224;-64
2023/07/03 06:57:48;;;;;;;18.50;5.73;;;16.40;1.00;;;;;;5051308;28;20257;-65
2023/07/03 07:00:19;;;;;;;15.43;5.57;;;16.40;1.00;;;;;;5049597;28;20218;-64
2023/07/03 07:02:47;;;;;;;16.00;5.40;;;16.40;1.00;;;;;;5048158;28;21137;-65
2023/07/03 07:05:16;;;;;;;21.73;5.70;;;16.40;1.00;;;;;;5051223;28;20223;-64
2023/07/03 07:07:45;;;;;;;17.47;6.33;;;16.40;1.00;;;;;;5048585;28;20226;-65
2023/07/03 07:10:13;;;;;;;21.60;6.23;;;16.30;1.00;;;;;;5048624;28;20216;-64
2023/07/03 07:12:41;;;;;;;20.23;6.57;;;16.40;1.00;;;;;;5046435;28;20222;-64
2023/07/03 07:15:10;;;;;;;22.63;6.00;;;16.40;1.00;;;;;;5050383;28;20257;-65
2023/07/03 07:17:40;;;;;;;24.00;6.60;;;16.40;1.00;;;;;;5051776;28;20218;-64
2023/07/03 07:20:19;;;;;;;18.80;6.27;;;16.50;1.00;;;;;;5047609;28;20225;-64
2023/07/03 07:22:48;;;;;;;16.27;5.60;;;16.50;1.00;;;;;;5046263;28;21143;-64
2023/07/03 07:25:17;;;;;;;16.57;5.97;;;16.60;1.00;;;;;;5049653;28;20227;-63
2023/07/03 07:27:45;;;;;;;18.80;5.73;;;16.70;1.00;;;;;;5047528;28;20227;-64
2023/07/03 07:30:14;;;;;;;19.90;5.80;;;16.90;1.00;;;;;;5047139;28;20223;-65
2023/07/03 07:32:44;;;;;;;19.50;6.43;;;17.10;1.00;;;;;;5041666;28;20295;-64
2023/07/03 07:35:12;;;;;;;16.90;5.53;;;17.30;1.00;;;;;;5054466;28;20208;-64
2023/07/03 07:37:40;;;;;;;19.57;6.13;;;17.60;99.90;;;;;;5048780;28;20219;-64
2023/07/03 07:40:10;;;;;;;15.00;4.73;;;17.70;99.90;;;;;;5039728;28;20213;-63
2023/07/03 07:42:39;;;;;;;15.73;4.47;;;17.70;99.90;;;;;;5051116;28;20228;-64
2023/07/03 07:45:08;;;;;;;20.80;5.23;;;17.60;99.90;;;;;;5046162;28;20215;-64
2023/07/03 07:47:36;;;;;;;13.13;4.67;;;17.60;99.90;;;;;;5049280;28;20216;-65
2023/07/03 07:50:07;;;;;;;16.90;5.13;;;17.70;99.90;;;;;;5052394;28;21826;-65
2023/07/03 07:52:36;;;;;;;18.87;5.13;;;17.80;99.90;;;;;;5051175;28;20282;-64
2023/07/03 07:55:06;;;;;;;19.07;5.57;;;17.80;99.90;;;;;;5087825;28;20239;-64
2023/07/03 07:57:34;;;;;;;16.40;5.10;;;17.70;99.90;;;;;;5089695;28;20190;-64
2023/07/03 08:00:03;;;;;;;13.57;4.77;;;17.70;99.90;;;;;;5080161;28;20198;-64
2023/07/03 08:02:31;;;;;;;15.37;5.67;;;17.70;99.90;;;;;;5083941;28;20261;-64
2023/07/03 08:05:00;;;;;;;15.53;5.10;;;17.70;99.90;;;;;;5087236;28;20220;-64
2023/07/03 08:07:30;;;;;;;16.70;5.70;;;17.80;99.90;;;;;;5087908;28;20224;-64
2023/07/03 08:09:58;;;;;;;20.87;4.33;;;17.90;99.90;;;;;;5088942;28;20219;-64
2023/07/03 08:12:26;;;;;;;15.87;5.17;;;18.10;99.90;;;;;;5086580;28;20187;-64
2023/07/03 08:14:54;;;;;;;11.37;4.27;;;18.30;99.90;;;;;;5092339;28;20183;-64
2023/07/03 08:17:23;;;;;;;13.97;4.20;;;18.50;99.90;;;;;;5066196;28;20239;-64
2023/07/03 08:19:51;;;;;;;11.97;4.07;;;18.70;99.90;;;;;;5063265;28;20265;-64
2023/07/03 08:22:20;;;;;;;11.80;3.50;;;19.00;99.90;;;;;;5088478;28;20219;-64
2023/07/03 08:24:49;;;;;;;13.20;4.10;;;19.10;99.90;;;;;;5085296;28;20234;-64
2023/07/03 08:27:18;;;;;;;11.23;3.53;;;19.10;99.90;;;;;;5086819;28;20188;-64
2023/07/03 08:29:47;;;;;;;10.70;3.90;;;19.10;99.90;;;;;;5087657;28;20196;-64
2023/07/03 08:32:15;;;;;;;14.37;3.60;;;19.10;99.90;;;;;;5064596;28;20580;-64
2023/07/03 08:34:44;;;;;;;11.80;3.37;;;19.00;99.90;;;;;;5088453;28;20705;-64
2023/07/03 08:37:34;;;;;;;15.93;4.10;;;18.90;99.90;;;;;;5086720;28;20230;-64
2023/07/03 08:40:05;;;;;;;11.27;3.20;;;19.00;99.90;;;;;;5086470;28;20221;-64
2023/07/03 08:42:36;;;;;;;14.17;4.17;;;19.10;99.90;;;;;;5085648;28;20195;-61
2023/07/03 08:45:08;;;;;;;13.97;3.73;;;19.30;99.90;;;;;;5091697;28;20207;-65
2023/07/03 08:47:37;;;;;;;12.50;3.93;;;19.40;99.90;;;;;;5089147;28;20307;-65
2023/07/03 08:50:07;;;;;;;12.47;3.33;;;19.50;99.90;;;;;;5089015;28;20219;-65
2023/07/03 08:52:44;;;;;;;15.13;3.27;;;19.40;99.90;;;;;;5082972;28;20573;-64
2023/07/03 08:55:19;;;;;;;8.57;3.43;;;19.20;99.90;;;;;;5065897;28;20223;-65
2023/07/03 08:57:48;;;;;;;11.17;3.13;;;19.10;99.90;;;;;;5066643;28;20567;-64
2023/07/03 09:00:17;;;;;;;8.53;3.40;;;19.20;99.90;;;;;;5063731;28;20200;-65
2023/07/03 09:02:49;;;;;;;8.53;3.00;;;19.30;99.90;;;;;;5065006;28;20187;-64
2023/07/03 09:05:32;;;;;;;12.50;3.80;;;19.10;99.90;;;;;;5067001;28;20216;-65
2023/07/03 09:08:04;;;;;;;11.37;3.60;;;19.10;99.90;;;;;;5067590;28;20211;-65
2023/07/03 09:10:39;;;;;;;14.27;3.83;;;19.00;99.90;;;;;;5064596;28;20220;-65
2023/07/03 09:13:13;;;;;;;14.20;4.00;;;19.20;99.90;;;;;;5068543;28;20227;-63
2023/07/03 09:15:46;;;;;;;10.50;3.23;;;19.40;99.90;;;;;;5067456;28;20247;-65
2023/07/03 09:18:18;;;;;;;10.17;3.67;;;19.70;99.90;;;;;;5066726;28;20204;-64
2023/07/03 09:20:47;;;;;;;8.57;3.17;;;19.80;99.90;;;;;;5067920;28;20647;-65
2023/07/03 09:23:20;;;;;;;17.43;3.77;;;19.70;99.90;;;;;;5060908;28;20632;-65
2023/07/03 09:25:54;;;;;;;11.33;3.40;;;19.60;99.90;;;;;;5072055;28;20578;-63
2023/07/03 09:28:25;;;;;;;10.17;3.33;;;19.60;99.90;;;;;;5070885;28;20216;-64
2023/07/03 09:30:54;;;;;;;10.67;3.03;;;19.50;99.90;;;;;;5076893;28;20220;-64
2023/07/03 09:33:22;;;;;;;11.20;3.20;;;19.40;99.90;;;;;;5068901;28;20225;-66
2023/07/03 09:35:53;;;;;;;6.13;2.60;;;19.60;99.90;;;;;;5068776;28;20197;-64
2023/07/03 09:38:24;;;;;;;10.83;3.27;;;19.80;99.90;;;;;;5069791;28;20219;-64
2023/07/03 09:40:56;;;;;;;11.93;3.17;;;19.90;99.90;;;;;;5078166;28;20219;-64
2023/07/03 09:43:29;;;;;;;6.70;2.50;;;20.00;99.90;;;;;;5070414;28;20298;-65
2023/07/03 09:46:04;;;;;;;8.07;2.67;;;20.00;99.90;;;;;;5072515;28;20212;-65
2023/07/03 09:48:34;;;;;;;9.20;2.70;;;20.00;99.90;;;;;;5070204;28;20215;-64
2023/07/03 09:51:05;;;;;;;8.37;2.70;;;20.10;99.90;;;;;;5068470;28;20212;-64
2023/07/03 09:53:40;;;;;;;9.40;2.77;;;20.30;99.90;;;;;;5071547;28;20313;-64
2023/07/03 09:56:16;;;;;;;4.07;2.27;;;20.40;99.90;;;;;;5096863;28;20219;-65
2023/07/03 09:58:47;;;;;;;9.67;2.63;;;20.30;99.90;;;;;;5072907;28;20272;-64
2023/07/03 10:01:18;;;;;;;11.60;3.10;;;20.30;99.90;;;;;;5085296;28;20223;-65
2023/07/03 10:03:49;;;;;;;12.00;2.67;;;20.30;99.90;;;;;;5085122;28;20246;-64
2023/07/03 10:06:19;;;;;;;9.50;2.60;;;20.10;99.90;;;;;;5093139;28;20220;-65
2023/07/03 10:08:52;;;;;;;8.10;2.67;;;20.00;99.90;;;;;;5094379;28;20191;-64
2023/07/03 10:11:40;;;;;;;6.80;2.67;;;20.00;99.90;;;;;;5099611;28;20218;-64
2023/07/03 10:14:13;;;;;;;9.87;2.90;;;20.10;99.90;;;;;;5089906;28;20220;-64
2023/07/03 10:16:43;;;;;;;14.57;3.37;;;20.00;99.90;;;;;;5090312;28;20215;-65
2023/07/03 10:19:11;;;;;;;13.87;2.80;;;20.00;99.90;;;;;;5091211;28;20219;-65
2023/07/03 10:21:40;;;;;;;9.90;2.80;;;19.90;99.90;;;;;;5093997;28;20219;-64
2023/07/03 10:24:09;;;;;;;10.83;3.03;;;19.80;99.90;;;;;;5069038;28;20198;-64
2023/07/03 10:26:47;;;;;;;9.50;2.63;;;19.80;99.90;;;;;;5090931;28;20211;-64
2023/07/03 10:29:22;;;;;;;6.90;2.70;;;19.90;99.90;;;;;;5073922;28;20225;-64
2023/07/03 10:31:55;;;;;;;11.53;2.60;;;20.00;99.90;;;;;;5091674;28;20257;-64
2023/07/03 10:34:30;;;;;;;10.90;2.90;;;20.30;99.90;;;;;;5090797;28;20293;-63
2023/07/03 10:37:01;;;;;;;6.47;2.30;;;20.60;99.90;;;;;;5086733;28;20269;-62
2023/07/03 10:39:40;;;;;;;6.40;2.60;;;20.80;99.90;;;;;;5081589;28;20656;-62
2023/07/03 10:42:16;;;;;;;8.97;2.80;;;21.00;99.90;;;;;;5092539;28;20192;-64
2023/07/03 10:44:47;;;;;;;6.73;2.10;;;21.20;99.90;;;;;;5090872;28;20225;-65
2023/07/03 10:47:20;;;;;;;8.47;2.60;;;21.20;99.90;;;;;;5089797;28;20225;-65
2023/07/03 10:49:48;;;;;;;11.53;2.67;;;21.10;99.90;;;;;;5092416;28;20215;-63
2023/07/03 10:52:27;;;;;;;7.90;2.30;;;21.00;99.90;;;;;;5089526;28;20215;-63
2023/07/03 10:55:07;;;;;;;8.37;2.47;;;21.00;99.90;;;;;;5087446;28;20233;-64
2023/07/03 10:57:46;;;;;;;13.53;2.70;;;20.90;99.90;;;;;;5088014;28;20190;-65
2023/07/03 11:00:26;;;;;;;8.43;2.17;;;20.80;99.90;;;;;;5094554;28;20532;-65
2023/07/03 11:03:05;;;;;;;7.00;2.20;;;20.70;99.90;;;;;;5073811;28;20215;-63
2023/07/03 11:05:37;;;;;;;6.70;2.30;;;20.70;99.90;;;;;;5093145;28;20276;-64
2023/07/03 11:08:14;;;;;;;9.60;2.50;;;20.80;99.90;;;;;;5091379;28;20724;-64
2023/07/03 11:10:49;;;;;;;6.23;2.60;;;21.00;99.90;;;;;;5090554;28;20221;-64
2023/07/03 11:13:26;;;;;;;5.27;2.10;;;21.20;99.90;;;;;;5070574;28;20210;-64
2023/07/03 11:16:03;;;;;;;9.07;2.47;;;21.40;99.90;;;;;;5072823;28;20227;-65
2023/07/03 11:18:56;;;;;;;9.90;2.37;;;21.40;99.90;;;;;;5092534;28;20191;-64
2023/07/03 11:21:37;;;;;;;10.30;2.23;;;21.30;99.90;;;;;;5087013;28;20791;-64
2023/07/03 11:24:15;;;;;;;8.60;2.60;;;21.10;99.90;;;;;;5088683;28;20191;-63
2023/07/03 11:26:50;;;;;;;9.27;2.50;;;20.90;99.90;;;;;;5090256;28;20211;-63
2023/07/03 11:29:23;;;;;;;6.97;2.33;;;20.80;99.90;;;;;;5092811;28;20219;-64
2023/07/03 11:31:53;;;;;;;9.80;2.40;;;20.70;99.90;;;;;;5092953;28;20278;-63
2023/07/03 11:34:22;;;;;;;9.47;2.60;;;20.80;99.90;;;;;;5088450;28;20309;-65
2023/07/03 11:36:55;;;;;;;10.93;2.70;;;20.80;99.90;;;;;;5086862;28;20223;-64
2023/07/03 11:39:33;;;;;;;8.57;2.60;;;21.00;99.90;;;;;;5089047;28;20194;-63
2023/07/03 11:42:13;;;;;;;7.40;2.27;;;21.20;99.90;;;;;;5091627;28;20191;-64
2023/07/03 11:44:48;;;;;;;9.50;2.70;;;21.30;99.90;;;;;;5091628;28;20215;-66
2023/07/03 11:47:24;;;;;;;7.30;2.87;;;21.40;99.90;;;;;;5098011;28;20225;-64
2023/07/03 11:49:54;;;;;;;5.27;2.50;;;21.40;99.90;;;;;;5088450;28;20211;-65
2023/07/03 11:52:28;;;;;;;8.63;2.43;;;21.40;99.90;;;;;;5089707;28;20238;-65
2023/07/03 11:55:02;;;;;;;9.70;2.30;;;21.50;99.90;;;;;;5084042;28;20239;-65
2023/07/03 11:57:34;;;;;;;7.87;2.80;;;21.40;99.90;;;;;;5090988;28;20201;-65
2023/07/03 12:00:19;;;;;;;6.10;2.40;;;21.20;99.90;;;;;;5085175;28;20635;-64
2023/07/03 12:02:54;;;;;;;10.57;2.60;;;21.00;99.90;;;;;;5091921;28;20219;-63
2023/07/03 12:05:54;;;;;;;13.30;2.80;;;20.90;99.90;;;;;;5093678;28;20217;-64
2023/07/03 12:08:44;;;;;;;11.63;2.70;;;21.00;99.90;;;;;;5083166;28;20219;-64
2023/07/03 12:11:15;;;;;;;10.40;2.47;;;21.50;99.90;;;;;;5090960;28;20215;-63
2023/07/03 12:13:52;;;;;;;7.77;2.50;;;21.90;99.90;;;;;;5091473;28;20586;-64
2023/07/03 12:16:26;;;;;;;7.07;2.47;;;22.30;99.90;;;;;;5088535;28;20224;-64
2023/07/03 12:19:00;;;;;;;5.73;2.40;;;22.40;99.90;;;;;;5074087;28;20615;-65
2023/07/03 12:21:44;;;;;;;8.10;2.80;;;22.30;99.90;;;;;;5091578;28;20200;-64
2023/07/03 12:24:28;;;;;;;11.87;2.93;;;22.10;99.90;;;;;;5091432;28;20211;-65
2023/07/03 12:27:00;;;;;;;10.07;2.93;;;22.10;99.90;;;;;;5087312;28;20211;-64
2023/07/03 12:29:30;;;;;;;6.17;3.10;;;22.10;99.90;;;;;;5088337;28;20216;-66
2023/07/03 12:32:05;;;;;;;8.20;2.80;;;22.20;99.90;;;;;;5095675;28;20216;-64
2023/07/03 12:34:35;;;;;;;11.37;3.00;;;22.00;99.90;;;;;;5091255;28;20227;-64
2023/07/03 12:37:06;;;;;;;10.83;2.97;;;21.70;99.90;;;;;;5069354;28;20225;-63
2023/07/03 12:39:36;;;;;;;12.00;2.90;;;21.60;99.90;;;;;;5090711;28;20195;-64
2023/07/03 12:42:10;;;;;;;7.23;2.90;;;21.40;99.90;;;;;;5090268;28;20615;-64
2023/07/03 12:44:39;;;;;;;9.50;2.77;;;21.40;99.90;;;;;;5083344;28;20223;-64
2023/07/03 12:47:10;;;;;;;10.63;2.80;;;21.40;99.90;;;;;;5072243;28;20249;-64
2023/07/03 12:49:58;;;;;;;8.53;2.90;;;21.70;99.90;;;;;;5071482;28;20224;-64
2023/07/03 12:52:30;;;;;;;11.63;3.00;;;21.90;99.90;;;;;;5071163;28;20268;-65
2023/07/03 12:54:59;;;;;;;5.60;2.87;;;22.10;99.90;;;;;;5090880;28;20705;-64
2023/07/03 12:57:33;;;;;;;9.90;3.27;;;22.30;99.90;;;;;;5096576;28;20206;-66
2023/07/03 13:00:02;;;;;;;16.27;3.57;;;22.50;99.90;;;;;;5097278;28;20207;-65